sensor_id;sensor_type;location;lat;lon;timestamp;P1;durP1;ratioP1;P2;durP2;ratioP2
77826;SDS011;67016;42.508;25.678;2023-03-11T00:00:28;19.48;;;7.43;;
77826;SDS011;67016;42.508;25.678;2023-03-11T00:02:55;19.17;;;7.32;;
77826;SDS011;67016;42.508;25.678;2023-03-11T00:05:23;16.90;;;7.30;;
77826;SDS011;67016;42.508;25.678;2023-03-11T00:07:51;18.63;;;7.03;;
77826;SDS011;67016;42.508;25.678;2023-03-11T00:10:21;14.55;;;7.40;;
77826;SDS011;67016;42.508;25.678;2023-03-11T00:12:48;17.45;;;8.68;;
77826;SDS011;67016;42.508;25.678;2023-03-11T00:15:13;23.88;;;9.07;;
77826;SDS011;67016;42.508;25.678;2023-03-11T00:17:39;23.83;;;8.88;;
77826;SDS011;67016;42.508;25.678;2023-03-11T00:20:05;23.40;;;7.68;;
77826;SDS011;67016;42.508;25.678;2023-03-11T00:22:32;20.20;;;8.30;;
77826;SDS011;67016;42.508;25.678;2023-03-11T00:24:57;22.58;;;8.73;;
77826;SDS011;67016;42.508;25.678;2023-03-11T00:27:23;18.38;;;8.10;;
77826;SDS011;67016;42.508;25.678;2023-03-11T00:29:49;20.20;;;8.10;;
77826;SDS011;67016;42.508;25.678;2023-03-11T00:32:15;20.50;;;7.88;;
77826;SDS011;67016;42.508;25.678;2023-03-11T00:34:41;23.05;;;7.60;;
77826;SDS011;67016;42.508;25.678;2023-03-11T00:37:06;22.92;;;8.07;;
77826;SDS011;67016;42.508;25.678;2023-03-11T00:39:32;13.00;;;6.93;;
77826;SDS011;67016;42.508;25.678;2023-03-11T00:41:58;15.98;;;8.07;;
77826;SDS011;67016;42.508;25.678;2023-03-11T00:44:24;22.63;;;8.65;;
77826;SDS011;67016;42.508;25.678;2023-03-11T00:46:50;32.83;;;8.57;;
77826;SDS011;67016;42.508;25.678;2023-03-11T00:49:16;25.35;;;8.43;;
77826;SDS011;67016;42.508;25.678;2023-03-11T00:51:42;19.25;;;7.57;;
77826;SDS011;67016;42.508;25.678;2023-03-11T00:54:08;22.38;;;8.52;;
77826;SDS011;67016;42.508;25.678;2023-03-11T00:56:34;20.60;;;7.75;;
77826;SDS011;67016;42.508;25.678;2023-03-11T00:59:00;20.45;;;7.80;;
77826;SDS011;67016;42.508;25.678;2023-03-11T01:01:26;24.27;;;8.18;;
77826;SDS011;67016;42.508;25.678;2023-03-11T01:03:51;22.17;;;8.13;;
77826;SDS011;67016;42.508;25.678;2023-03-11T01:06:17;22.63;;;8.40;;
77826;SDS011;67016;42.508;25.678;2023-03-11T01:08:43;20.88;;;7.95;;
77826;SDS011;67016;42.508;25.678;2023-03-11T01:11:08;19.02;;;6.68;;
77826;SDS011;67016;42.508;25.678;2023-03-11T01:13:34;21.42;;;7.90;;
77826;SDS011;67016;42.508;25.678;2023-03-11T01:16:00;20.95;;;8.57;;
77826;SDS011;67016;42.508;25.678;2023-03-11T01:18:26;21.60;;;7.25;;
77826;SDS011;67016;42.508;25.678;2023-03-11T01:20:52;20.52;;;8.00;;
77826;SDS011;67016;42.508;25.678;2023-03-11T01:23:18;15.80;;;7.13;;
77826;SDS011;67016;42.508;25.678;2023-03-11T01:25:44;14.85;;;7.10;;
77826;SDS011;67016;42.508;25.678;2023-03-11T01:28:10;21.83;;;6.97;;
77826;SDS011;67016;42.508;25.678;2023-03-11T01:30:37;18.60;;;7.40;;
77826;SDS011;67016;42.508;25.678;2023-03-11T01:33:03;15.57;;;6.63;;
77826;SDS011;67016;42.508;25.678;2023-03-11T01:35:30;21.83;;;6.82;;
77826;SDS011;67016;42.508;25.678;2023-03-11T01:37:57;20.25;;;7.80;;
77826;SDS011;67016;42.508;25.678;2023-03-11T01:40:25;21.33;;;7.13;;
77826;SDS011;67016;42.508;25.678;2023-03-11T01:42:51;17.58;;;6.93;;
77826;SDS011;67016;42.508;25.678;2023-03-11T01:48:07;16.73;;;7.10;;
77826;SDS011;67016;42.508;25.678;2023-03-11T01:50:35;19.88;;;6.43;;
77826;SDS011;67016;42.508;25.678;2023-03-11T01:53:04;12.82;;;6.88;;
77826;SDS011;67016;42.508;25.678;2023-03-11T01:55:30;19.33;;;7.47;;
77826;SDS011;67016;42.508;25.678;2023-03-11T01:57:57;17.10;;;6.95;;
77826;SDS011;67016;42.508;25.678;2023-03-11T02:00:24;23.27;;;7.95;;
77826;SDS011;67016;42.508;25.678;2023-03-11T02:02:50;16.05;;;7.38;;
77826;SDS011;67016;42.508;25.678;2023-03-11T02:05:18;22.52;;;7.45;;
77826;SDS011;67016;42.508;25.678;2023-03-11T02:07:44;19.33;;;7.63;;
77826;SDS011;67016;42.508;25.678;2023-03-11T02:10:12;20.20;;;8.15;;
77826;SDS011;67016;42.508;25.678;2023-03-11T02:12:38;22.10;;;8.23;;
77826;SDS011;67016;42.508;25.678;2023-03-11T02:15:05;16.77;;;8.02;;
77826;SDS011;67016;42.508;25.678;2023-03-11T02:17:31;26.27;;;8.48;;
77826;SDS011;67016;42.508;25.678;2023-03-11T02:22:58;18.25;;;7.70;;
77826;SDS011;67016;42.508;25.678;2023-03-11T02:25:33;24.52;;;8.15;;
77826;SDS011;67016;42.508;25.678;2023-03-11T02:28:04;21.27;;;8.30;;
77826;SDS011;67016;42.508;25.678;2023-03-11T02:30:31;24.45;;;9.07;;
77826;SDS011;67016;42.508;25.678;2023-03-11T02:32:58;19.45;;;9.40;;
77826;SDS011;67016;42.508;25.678;2023-03-11T02:35:24;28.42;;;10.70;;
77826;SDS011;67016;42.508;25.678;2023-03-11T02:37:50;25.52;;;9.20;;
77826;SDS011;67016;42.508;25.678;2023-03-11T02:42:50;31.27;;;10.57;;
77826;SDS011;67016;42.508;25.678;2023-03-11T02:45:18;25.63;;;11.77;;
77826;SDS011;67016;42.508;25.678;2023-03-11T02:47:47;26.95;;;10.75;;
77826;SDS011;67016;42.508;25.678;2023-03-11T02:50:14;30.38;;;10.48;;
77826;SDS011;67016;42.508;25.678;2023-03-11T02:52:41;20.27;;;10.18;;
77826;SDS011;67016;42.508;25.678;2023-03-11T02:55:07;23.23;;;10.30;;
77826;SDS011;67016;42.508;25.678;2023-03-11T02:57:34;19.98;;;9.95;;
77826;SDS011;67016;42.508;25.678;2023-03-11T02:59:59;21.08;;;11.02;;
77826;SDS011;67016;42.508;25.678;2023-03-11T03:02:32;23.58;;;11.60;;
77826;SDS011;67016;42.508;25.678;2023-03-11T03:04:58;17.15;;;9.93;;
77826;SDS011;67016;42.508;25.678;2023-03-11T03:07:23;19.98;;;9.68;;
77826;SDS011;67016;42.508;25.678;2023-03-11T03:09:52;26.45;;;10.15;;
77826;SDS011;67016;42.508;25.678;2023-03-11T03:12:18;24.15;;;9.77;;
77826;SDS011;67016;42.508;25.678;2023-03-11T03:14:43;24.58;;;9.57;;
77826;SDS011;67016;42.508;25.678;2023-03-11T03:17:09;21.02;;;9.95;;
77826;SDS011;67016;42.508;25.678;2023-03-11T03:19:35;21.60;;;10.63;;
77826;SDS011;67016;42.508;25.678;2023-03-11T03:22:00;22.70;;;9.77;;
77826;SDS011;67016;42.508;25.678;2023-03-11T03:24:26;15.63;;;9.18;;
77826;SDS011;67016;42.508;25.678;2023-03-11T03:26:52;23.25;;;10.10;;
77826;SDS011;67016;42.508;25.678;2023-03-11T03:29:17;25.10;;;9.50;;
77826;SDS011;67016;42.508;25.678;2023-03-11T03:31:43;18.80;;;9.65;;
77826;SDS011;67016;42.508;25.678;2023-03-11T03:34:09;21.08;;;9.32;;
77826;SDS011;67016;42.508;25.678;2023-03-11T03:36:35;23.95;;;9.85;;
77826;SDS011;67016;42.508;25.678;2023-03-11T03:39:01;24.05;;;9.57;;
77826;SDS011;67016;42.508;25.678;2023-03-11T03:41:26;26.95;;;9.93;;
77826;SDS011;67016;42.508;25.678;2023-03-11T03:43:52;22.38;;;8.93;;
77826;SDS011;67016;42.508;25.678;2023-03-11T03:46:19;16.58;;;8.63;;
77826;SDS011;67016;42.508;25.678;2023-03-11T03:48:45;23.80;;;8.40;;
77826;SDS011;67016;42.508;25.678;2023-03-11T03:51:11;26.45;;;8.95;;
77826;SDS011;67016;42.508;25.678;2023-03-11T03:53:38;19.55;;;8.23;;
77826;SDS011;67016;42.508;25.678;2023-03-11T03:56:05;21.95;;;9.23;;
77826;SDS011;67016;42.508;25.678;2023-03-11T03:58:35;29.65;;;9.50;;
77826;SDS011;67016;42.508;25.678;2023-03-11T04:01:01;23.23;;;8.88;;
77826;SDS011;67016;42.508;25.678;2023-03-11T04:03:28;24.38;;;8.43;;
77826;SDS011;67016;42.508;25.678;2023-03-11T04:06:04;22.95;;;8.70;;
77826;SDS011;67016;42.508;25.678;2023-03-11T04:08:34;20.05;;;8.38;;
77826;SDS011;67016;42.508;25.678;2023-03-11T04:10:59;24.30;;;8.50;;
77826;SDS011;67016;42.508;25.678;2023-03-11T04:13:25;20.20;;;9.00;;
77826;SDS011;67016;42.508;25.678;2023-03-11T04:15:51;22.65;;;7.97;;
77826;SDS011;67016;42.508;25.678;2023-03-11T04:18:16;18.13;;;8.25;;
77826;SDS011;67016;42.508;25.678;2023-03-11T04:20:42;22.85;;;8.02;;
77826;SDS011;67016;42.508;25.678;2023-03-11T04:23:08;22.00;;;7.68;;
77826;SDS011;67016;42.508;25.678;2023-03-11T04:25:34;23.95;;;8.68;;
77826;SDS011;67016;42.508;25.678;2023-03-11T04:27:59;22.50;;;8.15;;
77826;SDS011;67016;42.508;25.678;2023-03-11T04:30:25;20.27;;;8.13;;
77826;SDS011;67016;42.508;25.678;2023-03-11T04:32:51;32.05;;;16.83;;
77826;SDS011;67016;42.508;25.678;2023-03-11T04:35:16;34.85;;;11.70;;
77826;SDS011;67016;42.508;25.678;2023-03-11T04:37:42;27.38;;;8.77;;
77826;SDS011;67016;42.508;25.678;2023-03-11T04:40:08;29.42;;;9.13;;
77826;SDS011;67016;42.508;25.678;2023-03-11T04:42:35;25.73;;;9.38;;
77826;SDS011;67016;42.508;25.678;2023-03-11T04:45:01;25.35;;;8.40;;
77826;SDS011;67016;42.508;25.678;2023-03-11T04:47:27;22.35;;;8.68;;
77826;SDS011;67016;42.508;25.678;2023-03-11T04:49:53;15.85;;;8.13;;
77826;SDS011;67016;42.508;25.678;2023-03-11T04:52:20;23.33;;;7.95;;
77826;SDS011;67016;42.508;25.678;2023-03-11T04:54:46;21.20;;;8.20;;
77826;SDS011;67016;42.508;25.678;2023-03-11T04:57:12;20.17;;;8.07;;
77826;SDS011;67016;42.508;25.678;2023-03-11T04:59:37;19.55;;;7.72;;
77826;SDS011;67016;42.508;25.678;2023-03-11T05:02:03;26.15;;;8.95;;
77826;SDS011;67016;42.508;25.678;2023-03-11T05:04:29;22.17;;;8.90;;
77826;SDS011;67016;42.508;25.678;2023-03-11T05:06:55;21.13;;;8.80;;
77826;SDS011;67016;42.508;25.678;2023-03-11T05:09:20;21.45;;;8.25;;
77826;SDS011;67016;42.508;25.678;2023-03-11T05:11:46;30.85;;;11.32;;
77826;SDS011;67016;42.508;25.678;2023-03-11T05:14:12;29.90;;;9.05;;
77826;SDS011;67016;42.508;25.678;2023-03-11T05:16:38;21.20;;;7.93;;
77826;SDS011;67016;42.508;25.678;2023-03-11T05:19:03;23.70;;;8.20;;
77826;SDS011;67016;42.508;25.678;2023-03-11T05:21:49;18.55;;;8.60;;
77826;SDS011;67016;42.508;25.678;2023-03-11T05:24:15;23.83;;;8.88;;
77826;SDS011;67016;42.508;25.678;2023-03-11T05:26:40;25.88;;;8.35;;
77826;SDS011;67016;42.508;25.678;2023-03-11T05:29:06;21.25;;;8.30;;
77826;SDS011;67016;42.508;25.678;2023-03-11T05:31:32;18.50;;;8.27;;
77826;SDS011;67016;42.508;25.678;2023-03-11T05:33:57;17.73;;;7.50;;
77826;SDS011;67016;42.508;25.678;2023-03-11T05:36:23;19.58;;;8.05;;
77826;SDS011;67016;42.508;25.678;2023-03-11T05:38:49;22.98;;;8.80;;
77826;SDS011;67016;42.508;25.678;2023-03-11T05:41:17;17.52;;;8.68;;
77826;SDS011;67016;42.508;25.678;2023-03-11T05:43:43;21.27;;;8.23;;
77826;SDS011;67016;42.508;25.678;2023-03-11T05:46:09;21.23;;;8.25;;
77826;SDS011;67016;42.508;25.678;2023-03-11T05:48:36;16.20;;;7.70;;
77826;SDS011;67016;42.508;25.678;2023-03-11T05:51:05;18.65;;;8.27;;
77826;SDS011;67016;42.508;25.678;2023-03-11T05:53:32;22.88;;;8.00;;
77826;SDS011;67016;42.508;25.678;2023-03-11T05:55:58;20.83;;;8.80;;
77826;SDS011;67016;42.508;25.678;2023-03-11T05:58:24;20.40;;;8.15;;
77826;SDS011;67016;42.508;25.678;2023-03-11T06:00:51;24.15;;;8.95;;
77826;SDS011;67016;42.508;25.678;2023-03-11T06:03:17;19.60;;;10.85;;
77826;SDS011;67016;42.508;25.678;2023-03-11T06:05:44;18.85;;;9.90;;
77826;SDS011;67016;42.508;25.678;2023-03-11T06:08:13;30.73;;;14.95;;
77826;SDS011;67016;42.508;25.678;2023-03-11T06:10:39;18.35;;;10.25;;
77826;SDS011;67016;42.508;25.678;2023-03-11T06:13:05;24.95;;;10.77;;
77826;SDS011;67016;42.508;25.678;2023-03-11T06:15:34;19.98;;;9.60;;
77826;SDS011;67016;42.508;25.678;2023-03-11T06:18:00;20.85;;;9.13;;
77826;SDS011;67016;42.508;25.678;2023-03-11T06:20:26;27.65;;;8.63;;
77826;SDS011;67016;42.508;25.678;2023-03-11T06:22:52;21.83;;;7.50;;
77826;SDS011;67016;42.508;25.678;2023-03-11T06:25:18;14.63;;;7.43;;
77826;SDS011;67016;42.508;25.678;2023-03-11T06:27:47;16.85;;;7.70;;
77826;SDS011;67016;42.508;25.678;2023-03-11T06:30:16;24.75;;;6.80;;
77826;SDS011;67016;42.508;25.678;2023-03-11T06:32:42;17.63;;;7.35;;
77826;SDS011;67016;42.508;25.678;2023-03-11T06:35:09;16.13;;;7.15;;
77826;SDS011;67016;42.508;25.678;2023-03-11T06:37:35;19.60;;;6.95;;
77826;SDS011;67016;42.508;25.678;2023-03-11T06:40:02;19.38;;;9.32;;
77826;SDS011;67016;42.508;25.678;2023-03-11T06:42:29;40.22;;;24.77;;
77826;SDS011;67016;42.508;25.678;2023-03-11T06:44:55;30.33;;;13.57;;
77826;SDS011;67016;42.508;25.678;2023-03-11T06:47:21;13.73;;;6.80;;
77826;SDS011;67016;42.508;25.678;2023-03-11T06:49:46;18.35;;;5.88;;
77826;SDS011;67016;42.508;25.678;2023-03-11T06:52:12;15.93;;;5.82;;
77826;SDS011;67016;42.508;25.678;2023-03-11T06:54:38;11.73;;;4.95;;
77826;SDS011;67016;42.508;25.678;2023-03-11T06:57:06;18.20;;;6.45;;
77826;SDS011;67016;42.508;25.678;2023-03-11T06:59:32;14.73;;;5.70;;
77826;SDS011;67016;42.508;25.678;2023-03-11T07:01:58;11.00;;;5.50;;
77826;SDS011;67016;42.508;25.678;2023-03-11T07:04:24;14.85;;;5.72;;
77826;SDS011;67016;42.508;25.678;2023-03-11T07:06:50;11.40;;;6.18;;
77826;SDS011;67016;42.508;25.678;2023-03-11T07:09:16;13.55;;;5.60;;
77826;SDS011;67016;42.508;25.678;2023-03-11T07:11:42;9.82;;;5.78;;
77826;SDS011;67016;42.508;25.678;2023-03-11T07:14:07;18.55;;;7.65;;
77826;SDS011;67016;42.508;25.678;2023-03-11T07:16:33;16.08;;;7.00;;
77826;SDS011;67016;42.508;25.678;2023-03-11T07:18:59;12.48;;;7.22;;
77826;SDS011;67016;42.508;25.678;2023-03-11T07:21:27;15.80;;;7.63;;
77826;SDS011;67016;42.508;25.678;2023-03-11T07:23:55;15.93;;;6.47;;
77826;SDS011;67016;42.508;25.678;2023-03-11T07:26:22;14.77;;;6.30;;
77826;SDS011;67016;42.508;25.678;2023-03-11T07:28:49;13.30;;;5.93;;
77826;SDS011;67016;42.508;25.678;2023-03-11T07:31:16;13.13;;;5.38;;
77826;SDS011;67016;42.508;25.678;2023-03-11T07:33:43;13.82;;;6.10;;
77826;SDS011;67016;42.508;25.678;2023-03-11T07:36:10;15.38;;;6.53;;
77826;SDS011;67016;42.508;25.678;2023-03-11T07:38:38;9.60;;;5.63;;
77826;SDS011;67016;42.508;25.678;2023-03-11T07:41:04;11.07;;;5.15;;
77826;SDS011;67016;42.508;25.678;2023-03-11T07:43:31;10.57;;;5.13;;
77826;SDS011;67016;42.508;25.678;2023-03-11T07:46:07;13.40;;;6.55;;
77826;SDS011;67016;42.508;25.678;2023-03-11T07:48:35;8.88;;;4.00;;
77826;SDS011;67016;42.508;25.678;2023-03-11T07:51:10;8.65;;;3.55;;
77826;SDS011;67016;42.508;25.678;2023-03-11T07:53:37;5.90;;;3.20;;
77826;SDS011;67016;42.508;25.678;2023-03-11T07:56:05;7.05;;;3.40;;
77826;SDS011;67016;42.508;25.678;2023-03-11T07:58:32;7.97;;;3.40;;
77826;SDS011;67016;42.508;25.678;2023-03-11T08:01:08;10.23;;;5.82;;
77826;SDS011;67016;42.508;25.678;2023-03-11T08:03:36;7.22;;;3.47;;
77826;SDS011;67016;42.508;25.678;2023-03-11T08:06:02;5.53;;;3.03;;
77826;SDS011;67016;42.508;25.678;2023-03-11T08:08:47;7.22;;;3.30;;
77826;SDS011;67016;42.508;25.678;2023-03-11T08:11:13;4.40;;;2.22;;
77826;SDS011;67016;42.508;25.678;2023-03-11T08:13:39;4.38;;;3.15;;
77826;SDS011;67016;42.508;25.678;2023-03-11T08:16:06;5.03;;;2.42;;
77826;SDS011;67016;42.508;25.678;2023-03-11T08:18:33;7.15;;;2.80;;
77826;SDS011;67016;42.508;25.678;2023-03-11T08:21:03;5.32;;;2.70;;
77826;SDS011;67016;42.508;25.678;2023-03-11T08:23:30;7.65;;;4.00;;
77826;SDS011;67016;42.508;25.678;2023-03-11T08:25:55;7.85;;;4.15;;
77826;SDS011;67016;42.508;25.678;2023-03-11T08:28:21;10.63;;;4.72;;
77826;SDS011;67016;42.508;25.678;2023-03-11T08:30:47;5.38;;;3.00;;
77826;SDS011;67016;42.508;25.678;2023-03-11T08:33:13;11.32;;;5.88;;
77826;SDS011;67016;42.508;25.678;2023-03-11T08:35:39;7.85;;;2.90;;
77826;SDS011;67016;42.508;25.678;2023-03-11T08:38:05;8.30;;;3.35;;
77826;SDS011;67016;42.508;25.678;2023-03-11T08:40:31;3.90;;;1.98;;
77826;SDS011;67016;42.508;25.678;2023-03-11T08:42:57;2.28;;;2.08;;
77826;SDS011;67016;42.508;25.678;2023-03-11T08:45:23;9.55;;;4.90;;
77826;SDS011;67016;42.508;25.678;2023-03-11T08:47:49;5.15;;;2.38;;
77826;SDS011;67016;42.508;25.678;2023-03-11T08:50:16;8.38;;;2.75;;
77826;SDS011;67016;42.508;25.678;2023-03-11T08:52:44;8.55;;;3.85;;
77826;SDS011;67016;42.508;25.678;2023-03-11T08:55:13;7.03;;;3.22;;
77826;SDS011;67016;42.508;25.678;2023-03-11T08:57:43;3.78;;;2.33;;
77826;SDS011;67016;42.508;25.678;2023-03-11T09:00:09;7.47;;;2.40;;
77826;SDS011;67016;42.508;25.678;2023-03-11T09:02:37;8.57;;;2.38;;
77826;SDS011;67016;42.508;25.678;2023-03-11T09:05:03;3.78;;;2.15;;
77826;SDS011;67016;42.508;25.678;2023-03-11T09:07:29;3.60;;;2.42;;
77826;SDS011;67016;42.508;25.678;2023-03-11T09:09:55;4.40;;;2.30;;
77826;SDS011;67016;42.508;25.678;2023-03-11T09:12:21;3.88;;;2.38;;
77826;SDS011;67016;42.508;25.678;2023-03-11T09:14:47;4.18;;;2.40;;
77826;SDS011;67016;42.508;25.678;2023-03-11T09:17:13;3.70;;;2.58;;
77826;SDS011;67016;42.508;25.678;2023-03-11T09:19:39;8.63;;;2.55;;
77826;SDS011;67016;42.508;25.678;2023-03-11T09:22:05;5.25;;;2.70;;
77826;SDS011;67016;42.508;25.678;2023-03-11T09:24:32;3.90;;;1.70;;
77826;SDS011;67016;42.508;25.678;2023-03-11T09:26:59;1.65;;;1.40;;
77826;SDS011;67016;42.508;25.678;2023-03-11T09:29:25;1.45;;;1.20;;
77826;SDS011;67016;42.508;25.678;2023-03-11T09:31:52;2.90;;;1.50;;
77826;SDS011;67016;42.508;25.678;2023-03-11T09:34:18;2.78;;;1.60;;
77826;SDS011;67016;42.508;25.678;2023-03-11T09:36:44;4.20;;;1.35;;
77826;SDS011;67016;42.508;25.678;2023-03-11T09:39:10;3.03;;;1.02;;
77826;SDS011;67016;42.508;25.678;2023-03-11T09:44:26;5.88;;;2.17;;
77826;SDS011;67016;42.508;25.678;2023-03-11T09:50:17;2.40;;;0.90;;
77826;SDS011;67016;42.508;25.678;2023-03-11T09:52:52;0.88;;;0.85;;
77826;SDS011;67016;42.508;25.678;2023-03-11T09:58:18;0.80;;;0.80;;
77826;SDS011;67016;42.508;25.678;2023-03-11T10:01:00;1.25;;;0.90;;
77826;SDS011;67016;42.508;25.678;2023-03-11T10:03:33;2.05;;;0.77;;
77826;SDS011;67016;42.508;25.678;2023-03-11T10:06:07;1.38;;;1.27;;
77826;SDS011;67016;42.508;25.678;2023-03-11T10:08:58;1.58;;;1.10;;
77826;SDS011;67016;42.508;25.678;2023-03-11T10:11:32;1.08;;;0.93;;
77826;SDS011;67016;42.508;25.678;2023-03-11T10:14:12;1.02;;;1.00;;
77826;SDS011;67016;42.508;25.678;2023-03-11T10:19:43;2.33;;;1.15;;
77826;SDS011;67016;42.508;25.678;2023-03-11T10:24:56;1.90;;;1.27;;
77826;SDS011;67016;42.508;25.678;2023-03-11T10:27:46;1.40;;;1.30;;
77826;SDS011;67016;42.508;25.678;2023-03-11T10:30:59;0.95;;;0.95;;
77826;SDS011;67016;42.508;25.678;2023-03-11T10:36:15;3.10;;;2.30;;
77826;SDS011;67016;42.508;25.678;2023-03-11T10:38:45;10.77;;;2.00;;
77826;SDS011;67016;42.508;25.678;2023-03-11T10:41:15;5.65;;;1.05;;
77826;SDS011;67016;42.508;25.678;2023-03-11T10:43:50;2.58;;;1.20;;
77826;SDS011;67016;42.508;25.678;2023-03-11T10:46:22;1.38;;;1.10;;
77826;SDS011;67016;42.508;25.678;2023-03-11T10:48:49;1.63;;;1.05;;
77826;SDS011;67016;42.508;25.678;2023-03-11T10:51:16;2.28;;;1.70;;
77826;SDS011;67016;42.508;25.678;2023-03-11T10:53:53;2.47;;;1.70;;
77826;SDS011;67016;42.508;25.678;2023-03-11T10:56:39;1.40;;;1.20;;
77826;SDS011;67016;42.508;25.678;2023-03-11T10:59:28;2.35;;;1.45;;
77826;SDS011;67016;42.508;25.678;2023-03-11T11:01:58;1.77;;;1.17;;
77826;SDS011;67016;42.508;25.678;2023-03-11T11:04:40;1.45;;;0.80;;
77826;SDS011;67016;42.508;25.678;2023-03-11T11:10:25;2.03;;;1.50;;
77826;SDS011;67016;42.508;25.678;2023-03-11T11:15:22;1.10;;;1.00;;
77826;SDS011;67016;42.508;25.678;2023-03-11T11:17:53;2.60;;;0.70;;
77826;SDS011;67016;42.508;25.678;2023-03-11T11:20:22;1.58;;;1.13;;
77826;SDS011;67016;42.508;25.678;2023-03-11T11:22:53;2.75;;;1.20;;
77826;SDS011;67016;42.508;25.678;2023-03-11T11:28:02;0.93;;;0.85;;
77826;SDS011;67016;42.508;25.678;2023-03-11T11:30:37;1.73;;;1.45;;
77826;SDS011;67016;42.508;25.678;2023-03-11T11:33:21;1.58;;;0.90;;
77826;SDS011;67016;42.508;25.678;2023-03-11T11:35:51;0.63;;;0.60;;
77826;SDS011;67016;42.508;25.678;2023-03-11T11:38:21;1.13;;;1.02;;
77826;SDS011;67016;42.508;25.678;2023-03-11T11:40:48;1.25;;;1.10;;
77826;SDS011;67016;42.508;25.678;2023-03-11T11:43:16;1.00;;;1.00;;
77826;SDS011;67016;42.508;25.678;2023-03-11T11:45:44;1.25;;;1.10;;
77826;SDS011;67016;42.508;25.678;2023-03-11T11:51:23;0.88;;;0.88;;
77826;SDS011;67016;42.508;25.678;2023-03-11T11:56:34;1.00;;;0.85;;
77826;SDS011;67016;42.508;25.678;2023-03-11T11:59:00;3.80;;;1.20;;
77826;SDS011;67016;42.508;25.678;2023-03-11T12:01:45;0.93;;;0.90;;
77826;SDS011;67016;42.508;25.678;2023-03-11T12:09:45;0.80;;;0.80;;
77826;SDS011;67016;42.508;25.678;2023-03-11T12:12:35;1.55;;;0.70;;
77826;SDS011;67016;42.508;25.678;2023-03-11T12:17:51;0.95;;;0.70;;
77826;SDS011;67016;42.508;25.678;2023-03-11T12:20:26;1.48;;;0.90;;
77826;SDS011;67016;42.508;25.678;2023-03-11T12:23:40;2.13;;;0.70;;
77826;SDS011;67016;42.508;25.678;2023-03-11T12:28:35;0.75;;;0.70;;
77826;SDS011;67016;42.508;25.678;2023-03-11T12:31:21;2.90;;;0.60;;
77826;SDS011;67016;42.508;25.678;2023-03-11T12:33:49;2.75;;;0.93;;
77826;SDS011;67016;42.508;25.678;2023-03-11T12:36:31;0.88;;;0.77;;
77826;SDS011;67016;42.508;25.678;2023-03-11T12:39:02;1.10;;;1.00;;
77826;SDS011;67016;42.508;25.678;2023-03-11T12:41:34;1.45;;;1.20;;
77826;SDS011;67016;42.508;25.678;2023-03-11T12:44:19;2.25;;;0.98;;
77826;SDS011;67016;42.508;25.678;2023-03-11T12:49:24;4.55;;;1.85;;
77826;SDS011;67016;42.508;25.678;2023-03-11T12:54:29;4.28;;;3.50;;
77826;SDS011;67016;42.508;25.678;2023-03-11T12:56:57;7.35;;;3.78;;
77826;SDS011;67016;42.508;25.678;2023-03-11T13:02:04;3.60;;;2.25;;
77826;SDS011;67016;42.508;25.678;2023-03-11T13:07:47;2.00;;;1.77;;
77826;SDS011;67016;42.508;25.678;2023-03-11T13:10:22;2.42;;;1.30;;
77826;SDS011;67016;42.508;25.678;2023-03-11T13:15:52;2.38;;;1.35;;
77826;SDS011;67016;42.508;25.678;2023-03-11T13:18:24;2.15;;;0.98;;
77826;SDS011;67016;42.508;25.678;2023-03-11T13:20:53;1.02;;;0.93;;
77826;SDS011;67016;42.508;25.678;2023-03-11T13:23:25;2.22;;;1.05;;
77826;SDS011;67016;42.508;25.678;2023-03-11T13:31:33;4.95;;;2.47;;
77826;SDS011;67016;42.508;25.678;2023-03-11T13:34:09;3.45;;;2.38;;
77826;SDS011;67016;42.508;25.678;2023-03-11T13:41:52;1.00;;;0.90;;
77826;SDS011;67016;42.508;25.678;2023-03-11T13:47:00;1.30;;;0.95;;
77826;SDS011;67016;42.508;25.678;2023-03-11T13:49:37;1.10;;;1.00;;
77826;SDS011;67016;42.508;25.678;2023-03-11T13:52:11;1.27;;;0.85;;
77826;SDS011;67016;42.508;25.678;2023-03-11T13:54:44;1.25;;;0.80;;
77826;SDS011;67016;42.508;25.678;2023-03-11T13:59:56;1.50;;;0.70;;
77826;SDS011;67016;42.508;25.678;2023-03-11T14:02:25;1.58;;;0.88;;
77826;SDS011;67016;42.508;25.678;2023-03-11T14:05:06;2.40;;;1.60;;
77826;SDS011;67016;42.508;25.678;2023-03-11T14:07:41;2.03;;;1.85;;
77826;SDS011;67016;42.508;25.678;2023-03-11T14:12:35;4.20;;;2.03;;
77826;SDS011;67016;42.508;25.678;2023-03-11T14:15:06;1.23;;;1.10;;
77826;SDS011;67016;42.508;25.678;2023-03-11T14:17:32;1.27;;;1.10;;
77826;SDS011;67016;42.508;25.678;2023-03-11T14:20:06;4.32;;;0.82;;
77826;SDS011;67016;42.508;25.678;2023-03-11T14:22:36;0.90;;;0.90;;
77826;SDS011;67016;42.508;25.678;2023-03-11T14:25:06;1.00;;;0.90;;
77826;SDS011;67016;42.508;25.678;2023-03-11T14:27:33;1.13;;;0.90;;
77826;SDS011;67016;42.508;25.678;2023-03-11T14:30:00;1.35;;;1.25;;
77826;SDS011;67016;42.508;25.678;2023-03-11T14:32:30;1.98;;;1.80;;
77826;SDS011;67016;42.508;25.678;2023-03-11T14:34:57;7.60;;;4.10;;
77826;SDS011;67016;42.508;25.678;2023-03-11T14:39:56;1.90;;;1.10;;
77826;SDS011;67016;42.508;25.678;2023-03-11T14:42:26;1.40;;;1.30;;
77826;SDS011;67016;42.508;25.678;2023-03-11T14:45:05;7.50;;;3.28;;
77826;SDS011;67016;42.508;25.678;2023-03-11T14:48:02;1.25;;;1.05;;
77826;SDS011;67016;42.508;25.678;2023-03-11T14:50:34;5.03;;;2.70;;
77826;SDS011;67016;42.508;25.678;2023-03-11T14:58:33;11.30;;;4.93;;
77826;SDS011;67016;42.508;25.678;2023-03-11T15:01:43;3.38;;;1.60;;
77826;SDS011;67016;42.508;25.678;2023-03-11T15:03:55;1.77;;;1.23;;
77826;SDS011;67016;42.508;25.678;2023-03-11T15:06:41;2.60;;;0.80;;
77826;SDS011;67016;42.508;25.678;2023-03-11T15:09:14;0.88;;;0.88;;
77826;SDS011;67016;42.508;25.678;2023-03-11T15:16:46;1.35;;;1.25;;
77826;SDS011;67016;42.508;25.678;2023-03-11T15:21:54;1.13;;;1.05;;
77826;SDS011;67016;42.508;25.678;2023-03-11T15:24:28;1.33;;;0.80;;
77826;SDS011;67016;42.508;25.678;2023-03-11T15:29:33;2.03;;;1.30;;
77826;SDS011;67016;42.508;25.678;2023-03-11T15:31:59;1.33;;;1.15;;
77826;SDS011;67016;42.508;25.678;2023-03-11T15:34:31;1.55;;;1.30;;
77826;SDS011;67016;42.508;25.678;2023-03-11T15:37:18;1.40;;;1.10;;
77826;SDS011;67016;42.508;25.678;2023-03-11T15:39:45;1.67;;;1.40;;
77826;SDS011;67016;42.508;25.678;2023-03-11T15:42:16;1.92;;;1.10;;
77826;SDS011;67016;42.508;25.678;2023-03-11T15:45:06;1.92;;;1.25;;
77826;SDS011;67016;42.508;25.678;2023-03-11T15:47:36;1.52;;;1.35;;
77826;SDS011;67016;42.508;25.678;2023-03-11T15:50:11;2.45;;;1.60;;
77826;SDS011;67016;42.508;25.678;2023-03-11T15:52:41;3.20;;;1.70;;
77826;SDS011;67016;42.508;25.678;2023-03-11T15:55:07;2.70;;;1.60;;
77826;SDS011;67016;42.508;25.678;2023-03-11T15:57:35;1.98;;;1.60;;
77826;SDS011;67016;42.508;25.678;2023-03-11T16:00:01;2.15;;;1.60;;
77826;SDS011;67016;42.508;25.678;2023-03-11T16:02:28;5.43;;;1.90;;
77826;SDS011;67016;42.508;25.678;2023-03-11T16:04:55;4.38;;;2.00;;
77826;SDS011;67016;42.508;25.678;2023-03-11T16:07:22;1.95;;;1.75;;
77826;SDS011;67016;42.508;25.678;2023-03-11T16:09:48;2.65;;;1.92;;
77826;SDS011;67016;42.508;25.678;2023-03-11T16:12:18;2.05;;;1.63;;
77826;SDS011;67016;42.508;25.678;2023-03-11T16:14:46;3.00;;;1.80;;
77826;SDS011;67016;42.508;25.678;2023-03-11T16:17:13;7.57;;;5.22;;